createdAt,value
2022-10-20T00:00:39.760Z,7.50
2022-10-20T00:03:09.285Z,8.18
2022-10-20T00:05:40.192Z,7.82
2022-10-20T00:08:09.562Z,8.38
2022-10-20T00:10:37.536Z,7.55
2022-10-20T00:13:05.630Z,7.50
2022-10-20T00:15:33.709Z,7.32
2022-10-20T00:18:01.667Z,7.20
2022-10-20T00:20:29.649Z,7.28
2022-10-20T00:22:57.629Z,6.38
2022-10-20T00:25:27.046Z,6.88
2022-10-20T00:27:54.996Z,6.75
2022-10-20T00:30:25.034Z,6.60
2022-10-20T00:32:53.828Z,6.30
2022-10-20T00:35:21.829Z,6.57
2022-10-20T00:37:49.812Z,6.38
2022-10-20T00:40:18.030Z,6.68
2022-10-20T00:42:47.923Z,7.43
2022-10-20T00:45:17.307Z,7.97
2022-10-20T00:47:48.801Z,8.32
2022-10-20T00:50:20.384Z,8.13
2022-10-20T00:52:49.748Z,8.30
2022-10-20T00:55:21.734Z,7.45
2022-10-20T00:57:53.233Z,8.07
2022-10-20T01:00:21.846Z,8.23
2022-10-20T01:02:51.506Z,8.15
2022-10-20T01:05:20.001Z,8.90
2022-10-20T01:07:48.020Z,8.73
2022-10-20T01:10:16.934Z,8.05
2022-10-20T01:12:52.912Z,8.40
2022-10-20T01:15:32.772Z,8.25
2022-10-20T01:18:13.570Z,8.57
2022-10-20T01:21:14.920Z,8.93
2022-10-20T01:23:56.682Z,9.20
2022-10-20T01:26:54.120Z,8.32
2022-10-20T01:29:28.643Z,8.63
2022-10-20T01:32:06.124Z,8.27
2022-10-20T01:34:40.961Z,8.63
2022-10-20T01:37:28.299Z,8.82
2022-10-20T01:40:13.309Z,8.88
2022-10-20T01:42:43.518Z,8.95
2022-10-20T01:45:16.144Z,8.88
2022-10-20T01:47:46.300Z,8.30
2022-10-20T01:50:16.863Z,9.90
2022-10-20T01:52:44.795Z,9.52
2022-10-20T01:55:14.846Z,8.95
2022-10-20T01:57:55.269Z,9.43
2022-10-20T02:00:25.265Z,8.73
2022-10-20T02:03:11.727Z,9.35
2022-10-20T02:05:54.061Z,9.35
2022-10-20T02:08:29.557Z,9.30
2022-10-20T02:11:00.319Z,9.38
2022-10-20T02:13:31.671Z,9.38
2022-10-20T02:16:05.895Z,8.50
2022-10-20T02:18:39.957Z,9.43
2022-10-20T02:21:08.688Z,8.90
2022-10-20T02:23:39.542Z,8.68
2022-10-20T02:26:09.764Z,9.20
2022-10-20T02:28:41.942Z,8.80
2022-10-20T02:31:12.130Z,8.55
2022-10-20T02:33:41.181Z,9.55
2022-10-20T02:36:16.769Z,9.15
2022-10-20T02:38:44.849Z,9.45
2022-10-20T02:41:12.839Z,9.30
2022-10-20T02:43:40.807Z,10.40
2022-10-20T02:46:08.893Z,9.68
2022-10-20T02:48:38.391Z,9.00
2022-10-20T02:51:07.450Z,8.73
2022-10-20T02:53:35.471Z,9.13
2022-10-20T02:56:03.370Z,8.70
2022-10-20T02:58:31.381Z,9.63
2022-10-20T03:00:59.413Z,10.38
2022-10-20T03:03:27.584Z,9.32
2022-10-20T03:05:57.004Z,8.63
2022-10-20T03:08:25.058Z,9.60
2022-10-20T03:10:53.017Z,9.10
2022-10-20T03:13:20.925Z,8.88
2022-10-20T03:15:48.946Z,9.55
2022-10-20T03:18:16.901Z,8.88
2022-10-20T03:20:45.029Z,9.32
2022-10-20T03:23:17.676Z,10.40
2022-10-20T03:25:48.032Z,9.02
2022-10-20T03:28:15.982Z,9.60
2022-10-20T03:30:46.438Z,9.07
2022-10-20T03:33:14.390Z,8.85
2022-10-20T03:35:42.287Z,9.45
2022-10-20T03:38:10.270Z,9.45
2022-10-20T03:40:39.593Z,9.68
2022-10-20T03:43:07.515Z,10.15
2022-10-20T03:45:35.563Z,9.93
2022-10-20T03:48:03.758Z,9.70
2022-10-20T03:50:31.735Z,9.93
2022-10-20T03:53:00.040Z,9.38
2022-10-20T03:55:27.967Z,9.67
2022-10-20T03:57:57.416Z,9.68
2022-10-20T04:00:25.420Z,9.95
2022-10-20T04:02:53.769Z,9.70
2022-10-20T04:05:22.392Z,9.88
2022-10-20T04:07:50.302Z,10.65
2022-10-20T04:10:18.850Z,9.52
2022-10-20T04:12:46.818Z,10.57
2022-10-20T04:15:18.477Z,10.57
2022-10-20T04:17:46.550Z,11.48
2022-10-20T04:20:14.500Z,10.30
2022-10-20T04:22:42.421Z,10.38
2022-10-20T04:25:12.097Z,10.88
2022-10-20T04:27:40.124Z,9.55
2022-10-20T04:30:09.433Z,10.68
2022-10-20T04:32:38.790Z,9.63
2022-10-20T04:35:07.593Z,10.40
2022-10-20T04:37:35.982Z,11.18
2022-10-20T04:40:04.858Z,11.07
2022-10-20T04:42:33.189Z,11.55
2022-10-20T04:45:01.138Z,11.37
2022-10-20T04:47:33.469Z,10.95
2022-10-20T04:50:03.002Z,10.95
2022-10-20T04:52:31.008Z,11.93
2022-10-20T04:54:58.992Z,13.10
2022-10-20T04:57:27.176Z,12.10
2022-10-20T04:59:55.153Z,12.50
2022-10-20T05:02:23.100Z,12.95
2022-10-20T05:04:50.967Z,11.70
2022-10-20T05:07:20.285Z,11.77
2022-10-20T05:09:49.428Z,12.30
2022-10-20T05:14:45.121Z,10.90
2022-10-20T05:17:13.051Z,10.30
2022-10-20T05:19:40.992Z,10.70
2022-10-20T05:22:08.908Z,10.98
2022-10-20T05:24:38.582Z,10.10
2022-10-20T05:27:06.532Z,10.70
2022-10-20T05:29:34.579Z,11.48
2022-10-20T05:32:02.594Z,12.25
2022-10-20T05:34:30.719Z,10.73
2022-10-20T05:36:58.693Z,11.27
2022-10-20T05:39:27.036Z,10.82
2022-10-20T05:41:56.380Z,12.18
2022-10-20T05:44:24.491Z,11.30
2022-10-20T05:46:52.389Z,10.65
2022-10-20T05:49:20.317Z,11.25
2022-10-20T05:51:48.792Z,11.15
2022-10-20T05:54:17.152Z,12.75
2022-10-20T05:56:45.482Z,10.60
2022-10-20T05:59:15.087Z,11.00
2022-10-20T06:01:49.038Z,10.95
2022-10-20T06:04:19.018Z,10.85
2022-10-20T06:06:49.003Z,11.27
2022-10-20T06:09:17.715Z,11.20
2022-10-20T06:11:45.637Z,12.38
2022-10-20T06:14:15.432Z,11.73
2022-10-20T06:16:43.400Z,13.27
2022-10-20T06:19:11.689Z,11.52
2022-10-20T06:21:39.726Z,11.70
2022-10-20T06:24:08.253Z,11.63
2022-10-20T06:26:37.481Z,10.95
2022-10-20T06:31:38.976Z,10.47
2022-10-20T06:34:08.418Z,10.90
2022-10-20T06:36:37.078Z,10.55
2022-10-20T06:39:07.547Z,10.90
2022-10-20T06:41:35.726Z,11.15
2022-10-20T06:44:03.998Z,11.80
2022-10-20T06:46:33.973Z,12.40
2022-10-20T06:49:03.892Z,12.13
2022-10-20T06:51:32.981Z,11.05
2022-10-20T06:54:01.911Z,11.32
2022-10-20T06:56:31.432Z,10.68
2022-10-20T06:59:00.492Z,9.85
2022-10-20T07:01:30.211Z,9.75
2022-10-20T07:04:00.292Z,9.18
2022-10-20T07:06:31.176Z,9.55
2022-10-20T07:09:00.096Z,8.50
2022-10-20T07:11:30.283Z,8.35
2022-10-20T07:14:00.081Z,7.93
2022-10-20T07:16:29.106Z,8.18
2022-10-20T07:18:57.932Z,7.50
2022-10-20T07:21:32.355Z,7.40
2022-10-20T07:24:09.761Z,7.50
2022-10-20T07:26:41.586Z,8.30
2022-10-20T07:29:10.643Z,7.93
2022-10-20T07:34:24.884Z,5.95
2022-10-20T07:36:55.247Z,5.78
2022-10-20T07:39:25.389Z,5.78
2022-10-20T07:41:56.347Z,6.38
2022-10-20T07:44:24.647Z,5.55
2022-10-20T07:46:52.632Z,5.50
2022-10-20T07:49:43.404Z,5.85
2022-10-20T07:52:10.700Z,5.57
2022-10-20T07:54:40.016Z,5.50
2022-10-20T07:57:10.509Z,5.45
2022-10-20T07:59:42.594Z,5.40
2022-10-20T08:02:13.595Z,5.82
2022-10-20T08:04:44.806Z,5.57
2022-10-20T08:07:16.591Z,5.28
2022-10-20T08:09:47.886Z,5.47
2022-10-20T08:12:15.923Z,5.00
2022-10-20T08:17:46.865Z,4.93
2022-10-20T08:22:47.361Z,4.73
2022-10-20T08:25:18.047Z,4.63
2022-10-20T08:27:51.262Z,4.82
2022-10-20T08:30:23.783Z,5.30
2022-10-20T08:32:52.715Z,4.72
2022-10-20T08:35:20.910Z,4.63
2022-10-20T08:37:48.988Z,4.40
2022-10-20T08:40:21.485Z,4.93
2022-10-20T08:42:50.233Z,4.47
2022-10-20T08:45:21.418Z,5.05
2022-10-20T08:47:51.869Z,4.88
2022-10-20T08:50:21.911Z,4.13
2022-10-20T08:52:54.231Z,4.95
2022-10-20T08:55:29.299Z,4.80
2022-10-20T08:58:01.487Z,4.07
2022-10-20T09:00:31.535Z,4.93
2022-10-20T09:03:11.737Z,5.13
2022-10-20T09:05:43.749Z,4.15
2022-10-20T09:08:11.815Z,4.50
2022-10-20T09:10:46.597Z,4.30
2022-10-20T09:13:21.378Z,4.22
2022-10-20T09:15:50.153Z,4.55
2022-10-20T09:20:51.137Z,4.40
2022-10-20T09:23:40.000Z,4.18
2022-10-20T09:26:30.435Z,4.72
2022-10-20T09:29:15.393Z,4.10
2022-10-20T09:31:45.665Z,4.40
2022-10-20T09:34:25.001Z,4.47
2022-10-20T09:36:57.193Z,4.43
2022-10-20T09:39:28.904Z,4.35
2022-10-20T09:42:05.813Z,4.30
2022-10-20T09:44:38.336Z,4.32
2022-10-20T09:47:06.316Z,4.50
2022-10-20T09:49:38.102Z,4.00
2022-10-20T09:52:18.288Z,4.40
2022-10-20T09:54:51.001Z,4.85
2022-10-20T09:57:22.215Z,4.32
2022-10-20T09:59:53.893Z,4.15
2022-10-20T10:02:33.240Z,4.90
2022-10-20T10:05:16.326Z,4.72
2022-10-20T10:07:44.282Z,4.32
2022-10-20T10:10:27.569Z,4.30
2022-10-20T10:13:00.858Z,4.53
2022-10-20T10:15:31.677Z,4.38
2022-10-20T10:18:00.952Z,4.53
2022-10-20T10:20:39.310Z,4.50
2022-10-20T10:25:52.343Z,3.90
2022-10-20T10:28:29.864Z,4.00
2022-10-20T10:31:25.349Z,4.30
2022-10-20T10:33:58.547Z,3.80
2022-10-20T10:36:35.458Z,3.60
2022-10-20T10:39:05.071Z,3.45
2022-10-20T10:41:59.119Z,3.53
2022-10-20T10:44:40.861Z,3.45
2022-10-20T10:47:23.743Z,3.70
2022-10-20T10:50:02.333Z,3.90
2022-10-20T10:52:43.208Z,3.70
2022-10-20T10:55:43.629Z,3.40
2022-10-20T10:58:21.000Z,3.97
2022-10-20T11:01:07.307Z,3.20
2022-10-20T11:03:48.994Z,4.10
2022-10-20T11:06:28.838Z,3.70
2022-10-20T11:09:08.176Z,3.95
2022-10-20T11:11:45.223Z,3.97
2022-10-20T11:14:24.573Z,3.55
2022-10-20T11:17:04.251Z,3.15
2022-10-20T11:19:48.188Z,3.50
2022-10-20T11:22:26.852Z,3.55
2022-10-20T11:25:06.295Z,3.40
2022-10-20T11:27:37.982Z,3.67
2022-10-20T11:30:16.401Z,3.50
2022-10-20T11:35:25.357Z,3.70
2022-10-20T11:37:58.222Z,3.63
2022-10-20T11:40:31.710Z,3.70
2022-10-20T11:43:10.203Z,3.63
2022-10-20T11:45:46.036Z,3.63
2022-10-20T11:48:21.025Z,3.67
2022-10-20T11:51:07.854Z,3.65
2022-10-20T11:53:45.731Z,4.18
2022-10-20T11:56:29.287Z,3.65
2022-10-20T11:59:36.424Z,3.67
2022-10-20T12:02:29.571Z,3.63
2022-10-20T12:05:32.881Z,4.10
2022-10-20T12:08:36.167Z,4.10
2022-10-20T12:11:10.740Z,4.10
2022-10-20T12:13:47.403Z,3.90
2022-10-20T12:16:48.519Z,4.03
2022-10-20T12:19:18.727Z,4.35
2022-10-20T12:21:56.221Z,4.28
2022-10-20T12:24:35.377Z,4.35
2022-10-20T12:27:25.781Z,4.72
2022-10-20T12:29:57.844Z,4.32
2022-10-20T12:32:53.727Z,3.90
2022-10-20T12:35:31.522Z,4.10
2022-10-20T12:38:02.481Z,3.97
2022-10-20T12:40:41.572Z,3.95
2022-10-20T12:43:25.660Z,4.18
2022-10-20T12:45:59.497Z,3.90
2022-10-20T12:48:28.092Z,4.72
2022-10-20T12:51:05.615Z,4.50
2022-10-20T12:53:34.292Z,4.10
2022-10-20T12:56:08.202Z,4.50
2022-10-20T12:58:38.129Z,4.45
2022-10-20T13:01:12.350Z,4.47
2022-10-20T13:03:48.415Z,4.05
2022-10-20T13:06:43.935Z,4.65
2022-10-20T13:09:22.156Z,3.80
2022-10-20T13:12:01.791Z,4.22
2022-10-20T13:14:36.973Z,4.68
2022-10-20T13:17:20.151Z,4.55
2022-10-20T13:20:00.386Z,4.28
2022-10-20T13:22:43.115Z,4.82
2022-10-20T13:25:20.757Z,4.38
2022-10-20T13:27:51.271Z,4.20
2022-10-20T13:30:23.642Z,3.97
2022-10-20T13:33:18.250Z,3.90
2022-10-20T13:35:58.293Z,4.13
2022-10-20T13:38:33.395Z,7.20
2022-10-20T13:41:07.820Z,4.93
2022-10-20T13:43:47.954Z,4.95
2022-10-20T13:46:35.491Z,4.97
2022-10-20T13:49:19.241Z,4.50
2022-10-20T13:51:52.446Z,5.28
2022-10-20T13:54:25.350Z,5.50
2022-10-20T13:56:54.684Z,4.85
2022-10-20T13:59:25.947Z,5.45
2022-10-20T14:01:57.244Z,4.60
2022-10-20T14:04:26.865Z,4.38
2022-10-20T14:06:55.301Z,4.60
2022-10-20T14:09:25.151Z,4.32
2022-10-20T14:11:57.216Z,4.25
2022-10-20T14:14:28.422Z,3.80
2022-10-20T14:16:59.454Z,4.00
2022-10-20T14:19:28.844Z,3.67
2022-10-20T14:21:59.313Z,3.83
2022-10-20T14:24:33.990Z,4.35
2022-10-20T14:27:04.242Z,3.63
2022-10-20T14:29:36.078Z,3.50
2022-10-20T14:32:04.364Z,3.53
2022-10-20T14:34:35.965Z,3.45
2022-10-20T14:37:05.806Z,3.63
2022-10-20T14:39:39.442Z,3.78
2022-10-20T14:42:21.746Z,3.83
2022-10-20T14:44:53.024Z,3.20
2022-10-20T14:47:22.420Z,3.75
2022-10-20T14:49:52.852Z,3.78
2022-10-20T14:52:24.243Z,3.20
2022-10-20T14:54:52.648Z,3.10
2022-10-20T14:57:44.467Z,3.35
2022-10-20T15:00:29.566Z,3.20
2022-10-20T15:02:58.843Z,2.95
2022-10-20T15:05:36.213Z,3.28
2022-10-20T15:08:18.863Z,3.00
2022-10-20T15:10:46.966Z,3.20
2022-10-20T15:13:28.395Z,3.00
2022-10-20T15:15:59.078Z,2.97
2022-10-20T15:18:28.615Z,2.75
2022-10-20T15:20:57.545Z,3.13
2022-10-20T15:23:27.309Z,3.22
2022-10-20T15:25:58.837Z,3.05
2022-10-20T15:28:38.438Z,3.95
2022-10-20T15:31:19.771Z,3.90
2022-10-20T15:33:48.061Z,3.35
2022-10-20T15:36:20.675Z,4.38
2022-10-20T15:38:48.763Z,3.47
2022-10-20T15:41:18.228Z,3.75
2022-10-20T15:43:46.541Z,4.10
2022-10-20T15:46:17.066Z,5.10
2022-10-20T15:48:45.339Z,5.28
2022-10-20T15:51:17.305Z,5.57
2022-10-20T15:53:46.045Z,6.80
2022-10-20T15:56:13.925Z,6.05
2022-10-20T15:58:41.892Z,7.40
2022-10-20T16:01:12.609Z,8.13
2022-10-20T16:03:43.401Z,8.45
2022-10-20T16:06:13.439Z,9.07
2022-10-20T16:08:42.182Z,9.60
2022-10-20T16:11:11.521Z,9.07
2022-10-20T16:13:39.692Z,8.75
2022-10-20T16:16:09.508Z,9.40
2022-10-20T16:18:37.524Z,9.13
2022-10-20T16:21:07.740Z,9.27
2022-10-20T16:23:40.617Z,9.10
2022-10-20T16:26:13.223Z,9.13
2022-10-20T16:28:41.809Z,9.38
2022-10-20T16:31:11.531Z,8.45
2022-10-20T16:33:39.519Z,8.45
2022-10-20T16:36:11.466Z,8.07
2022-10-20T16:38:40.477Z,8.18
2022-10-20T16:41:10.643Z,8.50
2022-10-20T16:43:39.774Z,10.15
2022-10-20T16:46:09.100Z,8.05
2022-10-20T16:48:39.013Z,9.45
2022-10-20T16:51:11.642Z,8.52
2022-10-20T16:53:40.227Z,9.57
2022-10-20T16:56:09.124Z,28.48
2022-10-20T16:58:37.158Z,23.83
2022-10-20T17:01:08.504Z,25.40
2022-10-20T17:03:36.789Z,25.08
2022-10-20T17:06:07.028Z,31.65
2022-10-20T17:08:37.880Z,53.38
2022-10-20T17:11:08.002Z,41.80
2022-10-20T17:13:37.258Z,50.97
2022-10-20T17:16:06.710Z,45.97
2022-10-20T17:18:34.809Z,42.30
2022-10-20T17:21:03.013Z,42.43
2022-10-20T17:23:33.996Z,34.53
2022-10-20T17:26:07.266Z,32.35
2022-10-20T17:28:37.150Z,30.02
2022-10-20T17:31:07.320Z,23.10
2022-10-20T17:33:35.862Z,23.05
2022-10-20T17:36:03.844Z,23.15
2022-10-20T17:38:32.060Z,17.45
2022-10-20T17:41:05.782Z,16.77
2022-10-20T17:43:34.406Z,13.23
2022-10-20T17:46:04.604Z,11.80
2022-10-20T17:48:33.277Z,10.35
2022-10-20T17:51:02.758Z,10.43
2022-10-20T17:53:32.458Z,10.40
2022-10-20T17:56:02.343Z,11.27
2022-10-20T17:58:31.845Z,12.07
2022-10-20T18:01:08.800Z,13.60
2022-10-20T18:03:36.968Z,50.33
2022-10-20T18:06:09.494Z,43.83
2022-10-20T18:08:37.570Z,37.40
2022-10-20T18:11:09.530Z,27.13
2022-10-20T18:13:40.457Z,20.65
2022-10-20T18:16:09.262Z,14.35
2022-10-20T18:18:37.494Z,12.95
2022-10-20T18:21:06.384Z,13.30
2022-10-20T18:23:36.539Z,10.93
2022-10-20T18:26:09.285Z,10.65
2022-10-20T18:28:41.949Z,10.30
2022-10-20T18:31:17.269Z,9.70
2022-10-20T18:33:45.828Z,10.00
2022-10-20T18:36:15.838Z,10.68
2022-10-20T18:38:45.373Z,10.40
2022-10-20T18:41:15.481Z,10.55
2022-10-20T18:43:46.466Z,10.32
2022-10-20T18:46:15.846Z,9.95
2022-10-20T18:48:44.165Z,9.70
2022-10-20T18:51:13.814Z,9.40
2022-10-20T18:53:43.490Z,9.27
2022-10-20T18:56:14.805Z,9.32
2022-10-20T18:58:50.360Z,8.82
2022-10-20T19:01:21.075Z,8.07
2022-10-20T19:03:50.553Z,8.77
2022-10-20T19:06:21.932Z,7.65
2022-10-20T19:08:52.805Z,7.75
2022-10-20T19:11:21.998Z,7.93
2022-10-20T19:16:21.236Z,8.35
2022-10-20T19:18:51.577Z,7.88
2022-10-20T19:23:52.296Z,8.20
2022-10-20T19:26:22.104Z,8.30
2022-10-20T19:28:58.436Z,8.48
2022-10-20T19:31:29.615Z,7.90
2022-10-20T19:33:59.655Z,8.18
2022-10-20T19:36:29.013Z,8.25
2022-10-20T19:38:57.613Z,8.07
2022-10-20T19:41:25.655Z,8.00
2022-10-20T19:43:55.074Z,7.55
2022-10-20T19:46:23.925Z,8.05
2022-10-20T19:48:52.140Z,9.00
2022-10-20T19:51:21.113Z,8.10
2022-10-20T19:53:49.732Z,9.68
2022-10-20T19:56:18.007Z,9.02
2022-10-20T19:58:48.401Z,8.93
2022-10-20T20:01:18.006Z,9.48
2022-10-20T20:03:46.324Z,9.80
2022-10-20T20:06:17.196Z,10.40
2022-10-20T20:08:46.685Z,10.43
2022-10-20T20:11:23.679Z,9.63
2022-10-20T20:13:52.040Z,9.43
2022-10-20T20:16:21.886Z,9.70
2022-10-20T20:18:50.172Z,9.63
2022-10-20T20:21:18.757Z,11.00
2022-10-20T20:23:58.903Z,10.30
2022-10-20T20:26:28.140Z,10.10
2022-10-20T20:28:57.159Z,9.35
2022-10-20T20:31:27.993Z,8.05
2022-10-20T20:33:57.763Z,9.18
2022-10-20T20:36:27.752Z,8.10
2022-10-20T20:38:57.863Z,7.78
2022-10-20T20:41:27.632Z,8.68
2022-10-20T20:43:55.800Z,8.55
2022-10-20T20:46:29.254Z,10.05
2022-10-20T20:48:57.648Z,10.05
2022-10-20T20:51:27.121Z,8.15
2022-10-20T20:53:55.033Z,7.20
2022-10-20T20:56:24.619Z,7.20
2022-10-20T20:58:55.640Z,6.65
2022-10-20T21:03:55.792Z,7.43
2022-10-20T21:06:33.139Z,6.53
2022-10-20T21:09:02.553Z,5.95
2022-10-20T21:11:30.946Z,8.38
2022-10-20T21:13:59.905Z,6.18
2022-10-20T21:16:29.288Z,5.72
2022-10-20T21:19:00.419Z,5.97
2022-10-20T21:21:30.386Z,6.10
2022-10-20T21:23:59.238Z,6.63
2022-10-20T21:26:30.092Z,6.95
2022-10-20T21:28:58.120Z,6.35
2022-10-20T21:31:27.938Z,6.07
2022-10-20T21:33:58.979Z,6.00
2022-10-20T21:36:29.585Z,5.93
2022-10-20T21:38:57.578Z,5.95
2022-10-20T21:41:27.143Z,6.18
2022-10-20T21:43:56.492Z,7.53
2022-10-20T21:46:27.222Z,6.63
2022-10-20T21:48:58.928Z,5.75
2022-10-20T21:51:30.199Z,5.57
2022-10-20T21:53:59.863Z,6.45
2022-10-20T21:56:28.325Z,6.22
2022-10-20T21:58:56.840Z,6.80
2022-10-20T22:01:26.703Z,6.97
2022-10-20T22:03:55.273Z,6.25
2022-10-20T22:06:24.947Z,6.38
2022-10-20T22:08:56.453Z,6.07
2022-10-20T22:11:26.653Z,6.47
2022-10-20T22:13:55.247Z,7.40
2022-10-20T22:16:25.119Z,6.80
2022-10-20T22:18:56.285Z,6.45
2022-10-20T22:21:24.245Z,6.38
2022-10-20T22:23:56.047Z,6.50
2022-10-20T22:26:25.743Z,6.78
2022-10-20T22:28:54.235Z,6.13
2022-10-20T22:31:23.023Z,6.97
2022-10-20T22:33:51.687Z,6.20
2022-10-20T22:36:20.613Z,5.82
2022-10-20T22:38:48.659Z,6.45
2022-10-20T22:41:18.560Z,6.22
2022-10-20T22:43:46.583Z,6.80
2022-10-20T22:46:15.825Z,6.60
2022-10-20T22:48:44.165Z,6.15
2022-10-20T22:51:12.401Z,6.20
2022-10-20T22:53:41.308Z,5.80
2022-10-20T22:56:12.151Z,5.82
2022-10-20T22:58:42.242Z,6.25
2022-10-20T23:01:11.600Z,6.85
2022-10-20T23:03:39.981Z,6.10
2022-10-20T23:06:09.785Z,6.30
2022-10-20T23:08:41.870Z,6.22
2022-10-20T23:11:10.369Z,5.57
2022-10-20T23:13:38.346Z,5.50
2022-10-20T23:16:08.332Z,5.72
2022-10-20T23:18:36.641Z,5.85
2022-10-20T23:21:05.313Z,5.63
2022-10-20T23:23:33.509Z,5.80
2022-10-20T23:26:03.818Z,5.50
2022-10-20T23:28:33.020Z,5.45
2022-10-20T23:31:10.372Z,4.88
2022-10-20T23:33:38.801Z,5.13
2022-10-20T23:36:07.365Z,5.20
2022-10-20T23:38:35.753Z,5.55
2022-10-20T23:41:04.138Z,5.03
2022-10-20T23:43:32.416Z,5.27
2022-10-20T23:46:00.407Z,5.00
2022-10-20T23:48:29.756Z,5.65
2022-10-20T23:50:58.253Z,5.70
2022-10-20T23:53:26.238Z,5.57
2022-10-20T23:55:54.240Z,5.38
2022-10-20T23:58:23.332Z,5.55
